Templar Park, Iowa
Current Conditions -  °F | °C
As of 4:34 AM on Sunday 21 Dec 2014 (Local Time) from KMJQ Reporting Station
Haze Haze  
Wind Chill: 25°   Ceiling: 200
Heat Index: 32°   Visibility: 1.2mi
Dew Point: 32°   Wind: 8mph
Humidity: 100%   Direction: 160°SSE
Pressure: 29.88"   Gusts: NA
Location:  43.4265°N, 95.1547°W
Report Text: KMJQ 211034Z AUTO 16007KT 1 1/4SM BR OVC002 00/00 A2988 RMK AO2
Loading
Personal Weather Stations






























Interactive Weather Map New forecast layout! Learn more

10-Day Weather Forecast

Advertisements
Track Severe Weather on mobile